West Farmington, Ohio
Current Conditions -  °F | °C
As of 9:51 AM on Saturday 25 Oct 2014 (Local Time) from KYNG Reporting Station
Broken Clouds Broken Clouds  
Wind Chill: 11°   Ceiling: 10000
Heat Index: 11°   Visibility: 9mi
Dew Point:   Wind: 9mph
Humidity: 77%   Direction: 220°SW
Pressure: 29.9"   Gusts: NA
Location:  41.39°N, 80.97°W
Report Text: KYNG 251351Z 22008KT 9SM BKN100 11/07 A2990 RMK AO2 SLP127 T01110072 $
Loading
Personal Weather Stations






























Interactive Weather Map
Tropical Storm Tracking
New forecast layout! Learn more

10-Day Weather Forecast

Advertisements
Track Severe Weather on mobile